METAR Data
IDs: Format: Raw Decoded Include TAF

Data at: 2125 UTC 01 Dec 2021

KCOU 012054Z 28008KT 10SM CLR 17/04 A2992 RMK AO2 SLP129 T01720039 57003 $